sensor_id;sensor_type;location;lat;lon;timestamp;P1;durP1;ratioP1;P2;durP2;ratioP2
70313;SDS011;57725;47.526;18.986;2022-11-20T00:01:10;23.50;;;14.23;;
70313;SDS011;57725;47.526;18.986;2022-11-20T00:03:40;19.15;;;12.50;;
70313;SDS011;57725;47.526;18.986;2022-11-20T00:06:10;22.08;;;14.10;;
70313;SDS011;57725;47.526;18.986;2022-11-20T00:08:39;19.77;;;12.93;;
70313;SDS011;57725;47.526;18.986;2022-11-20T00:11:08;20.27;;;12.85;;
70313;SDS011;57725;47.526;18.986;2022-11-20T00:13:36;21.88;;;14.63;;
70313;SDS011;57725;47.526;18.986;2022-11-20T00:16:02;21.13;;;12.98;;
70313;SDS011;57725;47.526;18.986;2022-11-20T00:18:29;20.33;;;12.45;;
70313;SDS011;57725;47.526;18.986;2022-11-20T00:21:28;20.88;;;13.25;;
70313;SDS011;57725;47.526;18.986;2022-11-20T00:23:48;20.52;;;12.57;;
70313;SDS011;57725;47.526;18.986;2022-11-20T00:26:14;19.08;;;12.02;;
70313;SDS011;57725;47.526;18.986;2022-11-20T00:28:42;21.85;;;12.82;;
70313;SDS011;57725;47.526;18.986;2022-11-20T00:31:12;21.33;;;13.15;;
70313;SDS011;57725;47.526;18.986;2022-11-20T00:33:38;20.92;;;13.73;;
70313;SDS011;57725;47.526;18.986;2022-11-20T00:36:08;19.50;;;12.07;;
70313;SDS011;57725;47.526;18.986;2022-11-20T00:38:38;18.80;;;11.90;;
70313;SDS011;57725;47.526;18.986;2022-11-20T00:41:05;19.10;;;11.88;;
70313;SDS011;57725;47.526;18.986;2022-11-20T00:43:37;20.02;;;12.73;;
70313;SDS011;57725;47.526;18.986;2022-11-20T00:46:10;21.98;;;12.07;;
70313;SDS011;57725;47.526;18.986;2022-11-20T00:48:38;17.67;;;11.55;;
70313;SDS011;57725;47.526;18.986;2022-11-20T00:51:08;19.30;;;12.40;;
70313;SDS011;57725;47.526;18.986;2022-11-20T00:53:34;18.38;;;12.20;;
70313;SDS011;57725;47.526;18.986;2022-11-20T00:56:00;18.55;;;11.60;;
70313;SDS011;57725;47.526;18.986;2022-11-20T00:58:31;20.13;;;12.40;;
70313;SDS011;57725;47.526;18.986;2022-11-20T01:01:08;19.13;;;12.80;;
70313;SDS011;57725;47.526;18.986;2022-11-20T01:03:41;17.98;;;11.50;;
70313;SDS011;57725;47.526;18.986;2022-11-20T01:08:38;19.23;;;11.95;;
70313;SDS011;57725;47.526;18.986;2022-11-20T01:11:05;18.20;;;11.95;;
70313;SDS011;57725;47.526;18.986;2022-11-20T01:13:39;18.90;;;12.05;;
70313;SDS011;57725;47.526;18.986;2022-11-20T01:18:38;17.30;;;11.50;;
70313;SDS011;57725;47.526;18.986;2022-11-20T01:21:07;19.38;;;12.10;;
70313;SDS011;57725;47.526;18.986;2022-11-20T01:23:35;18.27;;;11.55;;
70313;SDS011;57725;47.526;18.986;2022-11-20T01:26:02;20.50;;;12.70;;
70313;SDS011;57725;47.526;18.986;2022-11-20T01:28:32;21.60;;;12.38;;
70313;SDS011;57725;47.526;18.986;2022-11-20T01:30:59;18.73;;;11.27;;
70313;SDS011;57725;47.526;18.986;2022-11-20T01:33:24;17.42;;;10.77;;
70313;SDS011;57725;47.526;18.986;2022-11-20T01:35:50;18.60;;;10.77;;
70313;SDS011;57725;47.526;18.986;2022-11-20T01:38:16;17.15;;;11.25;;
70313;SDS011;57725;47.526;18.986;2022-11-20T01:40:42;17.40;;;11.88;;
70313;SDS011;57725;47.526;18.986;2022-11-20T01:43:14;20.25;;;12.05;;
70313;SDS011;57725;47.526;18.986;2022-11-20T01:48:38;16.95;;;10.77;;
70313;SDS011;57725;47.526;18.986;2022-11-20T01:51:29;17.02;;;11.32;;
70313;SDS011;57725;47.526;18.986;2022-11-20T01:54:13;18.25;;;10.95;;
70313;SDS011;57725;47.526;18.986;2022-11-20T01:56:47;19.13;;;11.50;;
70313;SDS011;57725;47.526;18.986;2022-11-20T01:59:17;19.08;;;10.93;;
70313;SDS011;57725;47.526;18.986;2022-11-20T02:01:43;20.05;;;11.55;;
70313;SDS011;57725;47.526;18.986;2022-11-20T02:04:09;19.13;;;11.90;;
70313;SDS011;57725;47.526;18.986;2022-11-20T02:06:45;18.08;;;11.95;;
70313;SDS011;57725;47.526;18.986;2022-11-20T02:09:15;18.58;;;11.52;;
70313;SDS011;57725;47.526;18.986;2022-11-20T02:11:41;18.23;;;11.27;;
70313;SDS011;57725;47.526;18.986;2022-11-20T02:14:08;19.45;;;11.73;;
70313;SDS011;57725;47.526;18.986;2022-11-20T02:16:44;20.75;;;11.93;;
70313;SDS011;57725;47.526;18.986;2022-11-20T02:19:22;21.50;;;12.38;;
70313;SDS011;57725;47.526;18.986;2022-11-20T02:24:27;20.27;;;12.18;;
70313;SDS011;57725;47.526;18.986;2022-11-20T02:27:03;19.90;;;12.07;;
70313;SDS011;57725;47.526;18.986;2022-11-20T02:32:05;20.30;;;11.45;;
70313;SDS011;57725;47.526;18.986;2022-11-20T02:34:31;18.98;;;12.18;;
70313;SDS011;57725;47.526;18.986;2022-11-20T02:36:59;18.77;;;11.65;;
70313;SDS011;57725;47.526;18.986;2022-11-20T02:39:27;18.15;;;11.35;;
70313;SDS011;57725;47.526;18.986;2022-11-20T02:41:53;21.27;;;12.48;;
70313;SDS011;57725;47.526;18.986;2022-11-20T02:44:20;19.58;;;11.63;;
70313;SDS011;57725;47.526;18.986;2022-11-20T02:46:46;21.77;;;12.63;;
70313;SDS011;57725;47.526;18.986;2022-11-20T02:49:11;19.80;;;11.80;;
70313;SDS011;57725;47.526;18.986;2022-11-20T02:51:36;21.15;;;11.45;;
70313;SDS011;57725;47.526;18.986;2022-11-20T02:54:02;20.17;;;11.93;;
70313;SDS011;57725;47.526;18.986;2022-11-20T02:56:27;19.63;;;11.68;;
70313;SDS011;57725;47.526;18.986;2022-11-20T02:58:56;20.38;;;11.80;;
70313;SDS011;57725;47.526;18.986;2022-11-20T03:01:21;20.20;;;12.13;;
70313;SDS011;57725;47.526;18.986;2022-11-20T03:03:49;18.33;;;10.90;;
70313;SDS011;57725;47.526;18.986;2022-11-20T03:06:15;19.50;;;11.93;;
70313;SDS011;57725;47.526;18.986;2022-11-20T03:08:41;19.75;;;11.75;;
70313;SDS011;57725;47.526;18.986;2022-11-20T03:11:07;21.70;;;12.50;;
70313;SDS011;57725;47.526;18.986;2022-11-20T03:13:33;22.17;;;13.13;;
70313;SDS011;57725;47.526;18.986;2022-11-20T03:16:21;20.85;;;12.48;;
70313;SDS011;57725;47.526;18.986;2022-11-20T03:18:46;18.95;;;12.27;;
70313;SDS011;57725;47.526;18.986;2022-11-20T03:21:12;21.67;;;13.38;;
70313;SDS011;57725;47.526;18.986;2022-11-20T03:23:38;22.05;;;13.57;;
70313;SDS011;57725;47.526;18.986;2022-11-20T03:26:11;21.02;;;12.82;;
70313;SDS011;57725;47.526;18.986;2022-11-20T03:28:37;21.85;;;13.15;;
70313;SDS011;57725;47.526;18.986;2022-11-20T03:31:12;20.85;;;12.45;;
70313;SDS011;57725;47.526;18.986;2022-11-20T03:33:39;19.90;;;12.85;;
70313;SDS011;57725;47.526;18.986;2022-11-20T03:36:06;20.63;;;12.73;;
70313;SDS011;57725;47.526;18.986;2022-11-20T03:38:33;20.48;;;12.27;;
70313;SDS011;57725;47.526;18.986;2022-11-20T03:41:21;21.05;;;12.88;;
70313;SDS011;57725;47.526;18.986;2022-11-20T03:46:14;20.63;;;12.40;;
70313;SDS011;57725;47.526;18.986;2022-11-20T03:48:40;22.88;;;12.82;;
70313;SDS011;57725;47.526;18.986;2022-11-20T03:53:38;22.27;;;13.25;;
70313;SDS011;57725;47.526;18.986;2022-11-20T03:56:04;22.80;;;13.60;;
70313;SDS011;57725;47.526;18.986;2022-11-20T03:58:34;21.98;;;12.98;;
70313;SDS011;57725;47.526;18.986;2022-11-20T04:01:13;21.60;;;12.57;;
70313;SDS011;57725;47.526;18.986;2022-11-20T04:03:41;22.50;;;13.45;;
70313;SDS011;57725;47.526;18.986;2022-11-20T04:08:37;22.55;;;13.30;;
70313;SDS011;57725;47.526;18.986;2022-11-20T04:11:10;22.25;;;13.15;;
70313;SDS011;57725;47.526;18.986;2022-11-20T04:13:42;22.58;;;13.27;;
70313;SDS011;57725;47.526;18.986;2022-11-20T04:16:11;20.63;;;12.32;;
70313;SDS011;57725;47.526;18.986;2022-11-20T04:18:36;22.27;;;13.15;;
70313;SDS011;57725;47.526;18.986;2022-11-20T04:21:02;23.45;;;13.70;;
70313;SDS011;57725;47.526;18.986;2022-11-20T04:23:28;22.17;;;12.52;;
70313;SDS011;57725;47.526;18.986;2022-11-20T04:25:54;22.25;;;13.13;;
70313;SDS011;57725;47.526;18.986;2022-11-20T04:28:20;21.10;;;12.07;;
70313;SDS011;57725;47.526;18.986;2022-11-20T04:30:50;22.40;;;13.18;;
70313;SDS011;57725;47.526;18.986;2022-11-20T04:33:15;21.58;;;11.95;;
70313;SDS011;57725;47.526;18.986;2022-11-20T04:35:40;22.33;;;13.50;;
70313;SDS011;57725;47.526;18.986;2022-11-20T04:38:06;20.17;;;12.45;;
70313;SDS011;57725;47.526;18.986;2022-11-20T04:40:31;21.33;;;13.20;;
70313;SDS011;57725;47.526;18.986;2022-11-20T04:42:56;22.20;;;13.60;;
70313;SDS011;57725;47.526;18.986;2022-11-20T04:45:24;22.55;;;13.20;;
70313;SDS011;57725;47.526;18.986;2022-11-20T04:47:49;21.48;;;13.05;;
70313;SDS011;57725;47.526;18.986;2022-11-20T04:50:20;25.92;;;14.05;;
70313;SDS011;57725;47.526;18.986;2022-11-20T04:52:45;21.77;;;12.70;;
70313;SDS011;57725;47.526;18.986;2022-11-20T04:55:11;22.30;;;14.52;;
70313;SDS011;57725;47.526;18.986;2022-11-20T04:57:36;23.05;;;13.23;;
70313;SDS011;57725;47.526;18.986;2022-11-20T05:00:02;22.48;;;13.80;;
70313;SDS011;57725;47.526;18.986;2022-11-20T05:02:30;19.95;;;12.52;;
70313;SDS011;57725;47.526;18.986;2022-11-20T05:05:07;21.65;;;12.45;;
70313;SDS011;57725;47.526;18.986;2022-11-20T05:07:32;18.98;;;12.43;;
70313;SDS011;57725;47.526;18.986;2022-11-20T05:09:58;23.30;;;13.52;;
70313;SDS011;57725;47.526;18.986;2022-11-20T05:12:26;21.85;;;13.40;;
70313;SDS011;57725;47.526;18.986;2022-11-20T05:14:51;22.25;;;13.02;;
70313;SDS011;57725;47.526;18.986;2022-11-20T05:17:19;19.98;;;12.60;;
70313;SDS011;57725;47.526;18.986;2022-11-20T05:19:44;21.50;;;12.25;;
70313;SDS011;57725;47.526;18.986;2022-11-20T05:22:09;21.77;;;13.13;;
70313;SDS011;57725;47.526;18.986;2022-11-20T05:24:35;21.20;;;12.93;;
70313;SDS011;57725;47.526;18.986;2022-11-20T05:27:05;20.42;;;12.38;;
70313;SDS011;57725;47.526;18.986;2022-11-20T05:29:30;22.85;;;12.48;;
70313;SDS011;57725;47.526;18.986;2022-11-20T05:32:00;21.45;;;12.63;;
70313;SDS011;57725;47.526;18.986;2022-11-20T05:34:30;20.58;;;11.90;;
70313;SDS011;57725;47.526;18.986;2022-11-20T05:36:58;20.85;;;12.57;;
70313;SDS011;57725;47.526;18.986;2022-11-20T05:39:23;22.73;;;13.45;;
70313;SDS011;57725;47.526;18.986;2022-11-20T05:41:48;20.92;;;13.10;;
70313;SDS011;57725;47.526;18.986;2022-11-20T05:44:34;22.35;;;13.10;;
70313;SDS011;57725;47.526;18.986;2022-11-20T05:46:59;21.60;;;13.50;;
70313;SDS011;57725;47.526;18.986;2022-11-20T05:49:24;24.02;;;13.05;;
70313;SDS011;57725;47.526;18.986;2022-11-20T05:51:52;22.55;;;13.05;;
70313;SDS011;57725;47.526;18.986;2022-11-20T05:54:17;24.30;;;14.20;;
70313;SDS011;57725;47.526;18.986;2022-11-20T05:56:45;24.55;;;13.65;;
70313;SDS011;57725;47.526;18.986;2022-11-20T05:59:13;23.30;;;12.63;;
70313;SDS011;57725;47.526;18.986;2022-11-20T06:01:38;23.50;;;13.60;;
70313;SDS011;57725;47.526;18.986;2022-11-20T06:04:03;26.17;;;13.75;;
70313;SDS011;57725;47.526;18.986;2022-11-20T06:06:29;22.95;;;13.30;;
70313;SDS011;57725;47.526;18.986;2022-11-20T06:08:54;21.55;;;13.13;;
70313;SDS011;57725;47.526;18.986;2022-11-20T06:11:23;23.02;;;14.45;;
70313;SDS011;57725;47.526;18.986;2022-11-20T06:13:50;23.70;;;12.52;;
70313;SDS011;57725;47.526;18.986;2022-11-20T06:16:16;23.42;;;14.00;;
70313;SDS011;57725;47.526;18.986;2022-11-20T06:18:46;21.90;;;12.93;;
70313;SDS011;57725;47.526;18.986;2022-11-20T06:21:13;20.67;;;13.07;;
70313;SDS011;57725;47.526;18.986;2022-11-20T06:23:43;22.58;;;13.88;;
70313;SDS011;57725;47.526;18.986;2022-11-20T06:26:13;23.20;;;13.48;;
70313;SDS011;57725;47.526;18.986;2022-11-20T06:28:40;19.63;;;12.70;;
70313;SDS011;57725;47.526;18.986;2022-11-20T06:31:06;22.63;;;13.93;;
70313;SDS011;57725;47.526;18.986;2022-11-20T06:33:33;22.17;;;12.75;;
70313;SDS011;57725;47.526;18.986;2022-11-20T06:35:59;21.40;;;11.90;;
70313;SDS011;57725;47.526;18.986;2022-11-20T06:38:25;23.75;;;13.77;;
70313;SDS011;57725;47.526;18.986;2022-11-20T06:40:51;24.58;;;13.80;;
70313;SDS011;57725;47.526;18.986;2022-11-20T06:43:17;21.85;;;13.77;;
70313;SDS011;57725;47.526;18.986;2022-11-20T06:45:42;18.63;;;11.95;;
70313;SDS011;57725;47.526;18.986;2022-11-20T06:48:08;21.98;;;13.10;;
70313;SDS011;57725;47.526;18.986;2022-11-20T06:50:36;21.15;;;12.77;;
70313;SDS011;57725;47.526;18.986;2022-11-20T06:53:02;21.63;;;12.82;;
70313;SDS011;57725;47.526;18.986;2022-11-20T06:55:31;21.08;;;12.40;;
70313;SDS011;57725;47.526;18.986;2022-11-20T06:57:59;20.63;;;12.85;;
70313;SDS011;57725;47.526;18.986;2022-11-20T07:00:24;22.73;;;13.02;;
70313;SDS011;57725;47.526;18.986;2022-11-20T07:02:52;20.48;;;13.25;;
70313;SDS011;57725;47.526;18.986;2022-11-20T07:05:17;23.70;;;12.85;;
70313;SDS011;57725;47.526;18.986;2022-11-20T07:07:43;21.30;;;13.15;;
70313;SDS011;57725;47.526;18.986;2022-11-20T07:10:08;21.10;;;12.98;;
70313;SDS011;57725;47.526;18.986;2022-11-20T07:12:34;21.63;;;14.10;;
70313;SDS011;57725;47.526;18.986;2022-11-20T07:15:00;20.90;;;12.95;;
70313;SDS011;57725;47.526;18.986;2022-11-20T07:17:25;23.35;;;14.07;;
70313;SDS011;57725;47.526;18.986;2022-11-20T07:19:53;21.17;;;13.07;;
70313;SDS011;57725;47.526;18.986;2022-11-20T07:22:18;20.92;;;13.93;;
70313;SDS011;57725;47.526;18.986;2022-11-20T07:24:46;23.63;;;13.15;;
70313;SDS011;57725;47.526;18.986;2022-11-20T07:27:12;22.02;;;13.25;;
70313;SDS011;57725;47.526;18.986;2022-11-20T07:29:37;21.13;;;13.13;;
70313;SDS011;57725;47.526;18.986;2022-11-20T07:32:03;21.02;;;13.00;;
70313;SDS011;57725;47.526;18.986;2022-11-20T07:34:29;21.30;;;12.98;;
70313;SDS011;57725;47.526;18.986;2022-11-20T07:36:54;21.30;;;12.82;;
70313;SDS011;57725;47.526;18.986;2022-11-20T07:39:22;21.70;;;13.25;;
70313;SDS011;57725;47.526;18.986;2022-11-20T07:41:47;21.58;;;12.25;;
70313;SDS011;57725;47.526;18.986;2022-11-20T07:44:12;22.92;;;12.73;;
70313;SDS011;57725;47.526;18.986;2022-11-20T07:46:40;20.20;;;12.65;;
70313;SDS011;57725;47.526;18.986;2022-11-20T07:49:05;20.90;;;12.90;;
70313;SDS011;57725;47.526;18.986;2022-11-20T07:51:31;21.23;;;13.00;;
70313;SDS011;57725;47.526;18.986;2022-11-20T07:53:56;21.45;;;12.68;;
70313;SDS011;57725;47.526;18.986;2022-11-20T07:56:21;21.23;;;12.88;;
70313;SDS011;57725;47.526;18.986;2022-11-20T07:58:47;20.10;;;12.60;;
70313;SDS011;57725;47.526;18.986;2022-11-20T08:01:12;21.27;;;12.52;;
70313;SDS011;57725;47.526;18.986;2022-11-20T08:03:42;20.30;;;12.38;;
70313;SDS011;57725;47.526;18.986;2022-11-20T08:06:12;18.75;;;12.32;;
70313;SDS011;57725;47.526;18.986;2022-11-20T08:08:39;20.02;;;12.45;;
70313;SDS011;57725;47.526;18.986;2022-11-20T08:11:05;17.80;;;11.90;;
70313;SDS011;57725;47.526;18.986;2022-11-20T08:16:34;19.75;;;11.63;;
70313;SDS011;57725;47.526;18.986;2022-11-20T08:19:01;19.95;;;12.27;;
70313;SDS011;57725;47.526;18.986;2022-11-20T08:21:26;20.05;;;12.18;;
70313;SDS011;57725;47.526;18.986;2022-11-20T08:23:52;19.80;;;12.55;;
70313;SDS011;57725;47.526;18.986;2022-11-20T08:26:17;18.92;;;11.90;;
70313;SDS011;57725;47.526;18.986;2022-11-20T08:28:45;18.88;;;11.63;;
70313;SDS011;57725;47.526;18.986;2022-11-20T08:31:13;17.90;;;11.38;;
70313;SDS011;57725;47.526;18.986;2022-11-20T08:33:38;17.77;;;11.38;;
70313;SDS011;57725;47.526;18.986;2022-11-20T08:36:04;21.02;;;12.55;;
70313;SDS011;57725;47.526;18.986;2022-11-20T08:38:32;19.25;;;12.05;;
70313;SDS011;57725;47.526;18.986;2022-11-20T08:41:00;20.75;;;11.98;;
70313;SDS011;57725;47.526;18.986;2022-11-20T08:43:46;22.02;;;12.63;;
70313;SDS011;57725;47.526;18.986;2022-11-20T08:46:11;20.85;;;12.13;;
70313;SDS011;57725;47.526;18.986;2022-11-20T08:48:37;22.33;;;12.63;;
70313;SDS011;57725;47.526;18.986;2022-11-20T08:51:02;22.30;;;13.27;;
70313;SDS011;57725;47.526;18.986;2022-11-20T08:53:37;19.80;;;11.88;;
70313;SDS011;57725;47.526;18.986;2022-11-20T08:56:03;22.40;;;12.95;;
70313;SDS011;57725;47.526;18.986;2022-11-20T08:58:28;19.48;;;11.90;;
70313;SDS011;57725;47.526;18.986;2022-11-20T09:00:56;20.38;;;11.65;;
70313;SDS011;57725;47.526;18.986;2022-11-20T09:03:22;20.33;;;12.25;;
70313;SDS011;57725;47.526;18.986;2022-11-20T09:05:56;19.77;;;12.05;;
70313;SDS011;57725;47.526;18.986;2022-11-20T09:08:25;17.23;;;9.93;;
70313;SDS011;57725;47.526;18.986;2022-11-20T09:10:52;21.90;;;12.50;;
70313;SDS011;57725;47.526;18.986;2022-11-20T09:13:21;20.92;;;12.57;;
70313;SDS011;57725;47.526;18.986;2022-11-20T09:15:47;20.63;;;13.02;;
70313;SDS011;57725;47.526;18.986;2022-11-20T09:18:17;19.70;;;12.23;;
70313;SDS011;57725;47.526;18.986;2022-11-20T09:20:42;19.88;;;12.48;;
70313;SDS011;57725;47.526;18.986;2022-11-20T09:23:10;19.95;;;12.63;;
70313;SDS011;57725;47.526;18.986;2022-11-20T09:25:37;17.67;;;11.45;;
70313;SDS011;57725;47.526;18.986;2022-11-20T09:28:03;19.00;;;11.73;;
70313;SDS011;57725;47.526;18.986;2022-11-20T09:30:28;20.55;;;12.65;;
70313;SDS011;57725;47.526;18.986;2022-11-20T09:32:55;19.33;;;11.38;;
70313;SDS011;57725;47.526;18.986;2022-11-20T09:35:21;19.30;;;11.77;;
70313;SDS011;57725;47.526;18.986;2022-11-20T09:37:46;19.73;;;11.93;;
70313;SDS011;57725;47.526;18.986;2022-11-20T09:40:25;19.25;;;13.20;;
70313;SDS011;57725;47.526;18.986;2022-11-20T09:43:57;19.67;;;12.05;;
70313;SDS011;57725;47.526;18.986;2022-11-20T09:46:07;20.88;;;13.32;;
70313;SDS011;57725;47.526;18.986;2022-11-20T09:48:44;19.48;;;11.70;;
70313;SDS011;57725;47.526;18.986;2022-11-20T09:53:58;18.02;;;11.30;;
70313;SDS011;57725;47.526;18.986;2022-11-20T09:56:28;17.95;;;11.52;;
70313;SDS011;57725;47.526;18.986;2022-11-20T09:58:54;19.83;;;12.40;;
70313;SDS011;57725;47.526;18.986;2022-11-20T10:01:26;19.52;;;12.27;;
70313;SDS011;57725;47.526;18.986;2022-11-20T10:04:04;18.67;;;11.05;;
70313;SDS011;57725;47.526;18.986;2022-11-20T10:09:39;19.45;;;11.63;;
70313;SDS011;57725;47.526;18.986;2022-11-20T10:12:17;19.83;;;11.43;;
70313;SDS011;57725;47.526;18.986;2022-11-20T10:31:17;18.05;;;10.68;;
70313;SDS011;57725;47.526;18.986;2022-11-20T10:33:54;17.73;;;11.02;;
70313;SDS011;57725;47.526;18.986;2022-11-20T10:36:25;18.85;;;11.57;;
70313;SDS011;57725;47.526;18.986;2022-11-20T10:39:15;16.67;;;10.75;;
70313;SDS011;57725;47.526;18.986;2022-11-20T10:41:49;16.58;;;10.63;;
70313;SDS011;57725;47.526;18.986;2022-11-20T10:44:20;17.02;;;11.00;;
70313;SDS011;57725;47.526;18.986;2022-11-20T10:47:12;17.20;;;10.82;;
70313;SDS011;57725;47.526;18.986;2022-11-20T10:49:41;17.77;;;11.65;;
70313;SDS011;57725;47.526;18.986;2022-11-20T11:00:50;17.10;;;10.55;;
70313;SDS011;57725;47.526;18.986;2022-11-20T11:08:39;19.08;;;11.18;;
70313;SDS011;57725;47.526;18.986;2022-11-20T11:11:24;15.90;;;10.65;;
70313;SDS011;57725;47.526;18.986;2022-11-20T11:14:03;17.27;;;10.70;;
70313;SDS011;57725;47.526;18.986;2022-11-20T11:16:30;16.27;;;10.38;;
70313;SDS011;57725;47.526;18.986;2022-11-20T11:19:04;17.15;;;11.48;;
70313;SDS011;57725;47.526;18.986;2022-11-20T11:21:30;16.47;;;10.37;;
70313;SDS011;57725;47.526;18.986;2022-11-20T11:24:02;17.23;;;11.63;;
70313;SDS011;57725;47.526;18.986;2022-11-20T11:26:40;17.27;;;11.07;;
70313;SDS011;57725;47.526;18.986;2022-11-20T11:29:24;17.73;;;11.27;;
70313;SDS011;57725;47.526;18.986;2022-11-20T11:32:02;17.20;;;10.13;;
70313;SDS011;57725;47.526;18.986;2022-11-20T11:35:00;17.05;;;10.77;;
70313;SDS011;57725;47.526;18.986;2022-11-20T11:37:27;16.77;;;10.60;;
70313;SDS011;57725;47.526;18.986;2022-11-20T11:39:59;15.82;;;10.88;;
70313;SDS011;57725;47.526;18.986;2022-11-20T11:42:27;17.60;;;11.65;;
70313;SDS011;57725;47.526;18.986;2022-11-20T11:44:53;16.60;;;10.48;;
70313;SDS011;57725;47.526;18.986;2022-11-20T11:47:43;18.20;;;10.32;;
70313;SDS011;57725;47.526;18.986;2022-11-20T12:00:39;18.75;;;11.38;;
70313;SDS011;57725;47.526;18.986;2022-11-20T12:03:19;17.38;;;10.30;;
70313;SDS011;57725;47.526;18.986;2022-11-20T12:05:54;15.82;;;9.68;;
70313;SDS011;57725;47.526;18.986;2022-11-20T12:08:30;16.88;;;10.88;;
70313;SDS011;57725;47.526;18.986;2022-11-20T12:11:06;15.60;;;9.98;;
70313;SDS011;57725;47.526;18.986;2022-11-20T12:16:23;16.42;;;10.60;;
70313;SDS011;57725;47.526;18.986;2022-11-20T12:18:58;17.70;;;10.88;;
70313;SDS011;57725;47.526;18.986;2022-11-20T12:32:17;16.10;;;10.80;;
70313;SDS011;57725;47.526;18.986;2022-11-20T12:34:52;17.90;;;10.38;;
70313;SDS011;57725;47.526;18.986;2022-11-20T12:37:24;17.98;;;11.35;;
70313;SDS011;57725;47.526;18.986;2022-11-20T12:39:55;17.65;;;10.48;;
70313;SDS011;57725;47.526;18.986;2022-11-20T12:42:39;15.48;;;10.50;;
70313;SDS011;57725;47.526;18.986;2022-11-20T12:51:07;19.98;;;12.02;;
70313;SDS011;57725;47.526;18.986;2022-11-20T12:59:53;17.20;;;10.90;;
70313;SDS011;57725;47.526;18.986;2022-11-20T13:05:21;18.20;;;11.65;;
70313;SDS011;57725;47.526;18.986;2022-11-20T13:07:53;18.27;;;11.35;;
70313;SDS011;57725;47.526;18.986;2022-11-20T13:10:25;18.67;;;11.13;;
70313;SDS011;57725;47.526;18.986;2022-11-20T13:13:01;16.42;;;10.38;;
70313;SDS011;57725;47.526;18.986;2022-11-20T13:18:16;17.52;;;11.07;;
70313;SDS011;57725;47.526;18.986;2022-11-20T13:20:43;17.88;;;11.55;;
70313;SDS011;57725;47.526;18.986;2022-11-20T13:23:22;18.65;;;11.18;;
70313;SDS011;57725;47.526;18.986;2022-11-20T13:26:02;18.33;;;11.35;;
70313;SDS011;57725;47.526;18.986;2022-11-20T13:28:48;16.58;;;10.30;;
70313;SDS011;57725;47.526;18.986;2022-11-20T13:31:31;20.23;;;11.77;;
70313;SDS011;57725;47.526;18.986;2022-11-20T13:34:02;21.23;;;12.07;;
70313;SDS011;57725;47.526;18.986;2022-11-20T13:36:32;18.38;;;11.45;;
70313;SDS011;57725;47.526;18.986;2022-11-20T13:38:59;19.50;;;12.15;;
70313;SDS011;57725;47.526;18.986;2022-11-20T13:46:44;17.50;;;11.15;;
70313;SDS011;57725;47.526;18.986;2022-11-20T13:49:33;21.30;;;12.07;;
70313;SDS011;57725;47.526;18.986;2022-11-20T13:52:04;18.67;;;11.52;;
70313;SDS011;57725;47.526;18.986;2022-11-20T13:55:00;19.98;;;11.23;;
70313;SDS011;57725;47.526;18.986;2022-11-20T14:00:29;19.45;;;11.77;;
70313;SDS011;57725;47.526;18.986;2022-11-20T14:03:06;17.83;;;12.00;;
70313;SDS011;57725;47.526;18.986;2022-11-20T14:05:38;20.55;;;13.02;;
70313;SDS011;57725;47.526;18.986;2022-11-20T14:08:17;17.88;;;11.18;;
70313;SDS011;57725;47.526;18.986;2022-11-20T14:10:50;19.77;;;12.25;;
70313;SDS011;57725;47.526;18.986;2022-11-20T14:13:29;22.48;;;12.63;;
70313;SDS011;57725;47.526;18.986;2022-11-20T14:15:57;19.13;;;12.43;;
70313;SDS011;57725;47.526;18.986;2022-11-20T14:18:25;21.20;;;12.38;;
70313;SDS011;57725;47.526;18.986;2022-11-20T14:20:51;21.42;;;13.00;;
70313;SDS011;57725;47.526;18.986;2022-11-20T14:23:23;21.15;;;12.80;;
70313;SDS011;57725;47.526;18.986;2022-11-20T14:25:50;21.42;;;13.20;;
70313;SDS011;57725;47.526;18.986;2022-11-20T14:28:21;18.23;;;11.45;;
70313;SDS011;57725;47.526;18.986;2022-11-20T14:30:51;20.17;;;12.27;;
70313;SDS011;57725;47.526;18.986;2022-11-20T14:33:22;20.10;;;13.25;;
70313;SDS011;57725;47.526;18.986;2022-11-20T14:35:58;19.17;;;12.43;;
70313;SDS011;57725;47.526;18.986;2022-11-20T14:38:25;19.05;;;12.20;;
70313;SDS011;57725;47.526;18.986;2022-11-20T14:41:06;19.85;;;11.68;;
70313;SDS011;57725;47.526;18.986;2022-11-20T14:43:45;22.58;;;12.65;;
70313;SDS011;57725;47.526;18.986;2022-11-20T14:46:11;22.08;;;12.43;;
70313;SDS011;57725;47.526;18.986;2022-11-20T14:48:43;20.35;;;12.18;;
70313;SDS011;57725;47.526;18.986;2022-11-20T14:51:23;20.58;;;12.77;;
70313;SDS011;57725;47.526;18.986;2022-11-20T14:53:56;23.70;;;14.27;;
70313;SDS011;57725;47.526;18.986;2022-11-20T14:56:58;19.70;;;12.63;;
70313;SDS011;57725;47.526;18.986;2022-11-20T14:59:27;21.05;;;11.82;;
70313;SDS011;57725;47.526;18.986;2022-11-20T15:01:55;20.17;;;13.10;;
70313;SDS011;57725;47.526;18.986;2022-11-20T15:04:24;21.02;;;13.27;;
70313;SDS011;57725;47.526;18.986;2022-11-20T15:06:53;21.60;;;12.35;;
70313;SDS011;57725;47.526;18.986;2022-11-20T15:09:21;21.90;;;13.35;;
70313;SDS011;57725;47.526;18.986;2022-11-20T15:11:52;21.33;;;12.75;;
70313;SDS011;57725;47.526;18.986;2022-11-20T15:14:20;20.70;;;13.40;;
70313;SDS011;57725;47.526;18.986;2022-11-20T15:16:45;19.55;;;12.23;;
70313;SDS011;57725;47.526;18.986;2022-11-20T15:19:14;19.88;;;12.15;;
70313;SDS011;57725;47.526;18.986;2022-11-20T15:21:43;20.70;;;12.52;;
70313;SDS011;57725;47.526;18.986;2022-11-20T15:24:08;23.27;;;13.77;;
70313;SDS011;57725;47.526;18.986;2022-11-20T15:26:35;21.02;;;12.90;;
70313;SDS011;57725;47.526;18.986;2022-11-20T15:29:02;19.30;;;12.10;;
70313;SDS011;57725;47.526;18.986;2022-11-20T15:31:27;22.30;;;13.32;;
70313;SDS011;57725;47.526;18.986;2022-11-20T15:33:55;21.63;;;13.07;;
70313;SDS011;57725;47.526;18.986;2022-11-20T15:36:20;21.33;;;13.38;;
70313;SDS011;57725;47.526;18.986;2022-11-20T15:38:48;21.52;;;13.00;;
70313;SDS011;57725;47.526;18.986;2022-11-20T15:41:14;23.02;;;13.23;;
70313;SDS011;57725;47.526;18.986;2022-11-20T15:43:39;22.35;;;12.95;;
70313;SDS011;57725;47.526;18.986;2022-11-20T15:46:13;21.45;;;13.45;;
70313;SDS011;57725;47.526;18.986;2022-11-20T15:48:45;22.63;;;13.18;;
70313;SDS011;57725;47.526;18.986;2022-11-20T15:51:34;22.75;;;13.93;;
70313;SDS011;57725;47.526;18.986;2022-11-20T15:54:08;21.48;;;12.88;;
70313;SDS011;57725;47.526;18.986;2022-11-20T15:59:00;23.53;;;13.17;;
70313;SDS011;57725;47.526;18.986;2022-11-20T16:01:26;22.45;;;13.52;;
70313;SDS011;57725;47.526;18.986;2022-11-20T16:03:51;23.65;;;13.95;;
70313;SDS011;57725;47.526;18.986;2022-11-20T16:06:17;23.35;;;14.13;;
70313;SDS011;57725;47.526;18.986;2022-11-20T16:08:42;21.92;;;13.32;;
70313;SDS011;57725;47.526;18.986;2022-11-20T16:11:10;23.25;;;13.35;;
70313;SDS011;57725;47.526;18.986;2022-11-20T16:13:39;20.23;;;12.52;;
70313;SDS011;57725;47.526;18.986;2022-11-20T16:16:26;20.35;;;13.35;;